Time;durP1;ratioP1;P1;durP2;ratioP2;P2;SDS_P1;SDS_P2;PMS_P1;PMS_P2;Temp;Humidity;BMP_temperature;BMP_pressure;BME280_temperature;BME280_humidity;BME280_pressure;Samples;Min_cycle;Max_cycle;Signal;HPM_P1;HPM_P2
2023/08/13 00:05:52;;;;;;;;;;;17.60;99.90;;;;;;12350184;28;19930;-82
2023/08/13 00:11:54;;;;;;;;;;;17.50;99.90;;;;;;12381437;28;19926;-82
2023/08/13 00:17:56;;;;;;;;;;;17.50;99.90;;;;;;12382297;28;19964;-81
2023/08/13 00:23:58;;;;;;;;;;;17.40;99.90;;;;;;12371527;28;19926;-82
2023/08/13 00:30:00;;;;;;;;;;;17.40;99.90;;;;;;12357651;28;19946;-82
2023/08/13 00:36:02;;;;;;;;;;;17.30;99.90;;;;;;12384742;28;19930;-82
2023/08/13 00:42:04;;;;;;;;;;;17.40;99.90;;;;;;12389658;28;20389;-82
2023/08/13 00:48:07;;;;;;;;;;;17.30;99.90;;;;;;12362089;28;19972;-82
2023/08/13 00:54:09;;;;;;;;;;;17.30;99.90;;;;;;12351085;28;19933;-82
2023/08/13 01:00:11;;;;;;;;;;;17.30;99.90;;;;;;12393550;28;19929;-82
2023/08/13 01:06:13;;;;;;;;;;;17.30;99.90;;;;;;12378396;28;19930;-82
2023/08/13 01:12:19;;;;;;;;;;;17.20;99.90;;;;;;12331516;28;19949;-85
2023/08/13 01:18:22;;;;;;;;;;;17.30;99.90;;;;;;12376557;28;19954;-86
2023/08/13 01:24:24;;;;;;;;;;;17.30;99.90;;;;;;12368530;28;19988;-86
2023/08/13 01:30:34;;;;;;;;;;;17.30;99.90;;;;;;12384759;28;19930;-85
2023/08/13 01:36:37;;;;;;;;;;;17.30;99.90;;;;;;12371861;28;19930;-85
2023/08/13 01:42:39;;;;;;;;;;;17.20;99.90;;;;;;12374891;28;19934;-84
2023/08/13 01:48:41;;;;;;;;;;;17.20;99.90;;;;;;12355299;28;19930;-84
2023/08/13 01:54:43;;;;;;;;;;;17.30;99.90;;;;;;12352777;28;19930;-84
2023/08/13 02:00:45;;;;;;;;;;;17.20;99.90;;;;;;12344329;28;19929;-85
2023/08/13 02:06:47;;;;;;;;;;;17.30;99.90;;;;;;12368553;28;19936;-85
2023/08/13 02:12:49;;;;;;;;;;;17.20;99.90;;;;;;12359618;28;19930;-84
2023/08/13 02:18:51;;;;;;;;;;;17.20;99.90;;;;;;12354623;28;21034;-84
2023/08/13 02:24:53;;;;;;;;;;;17.20;99.90;;;;;;12359449;28;19927;-82
2023/08/13 02:30:55;;;;;;;;;;;17.20;99.90;;;;;;12354349;28;20374;-82
2023/08/13 02:36:57;;;;;;;;;;;17.20;99.90;;;;;;12352244;28;19937;-83
2023/08/13 02:42:59;;;;;;;;;;;17.10;99.90;;;;;;12359794;28;19926;-82
2023/08/13 02:49:00;;;;;;;;;;;17.10;99.90;;;;;;12363823;28;19926;-82
2023/08/13 02:55:02;;;;;;;;;;;17.10;99.90;;;;;;12367385;28;20408;-82
2023/08/13 03:01:04;;;;;;;;;;;17.00;99.90;;;;;;12352411;28;19937;-81
2023/08/13 03:07:06;;;;;;;;;;;16.90;99.90;;;;;;12351647;28;19948;-82
2023/08/13 03:13:09;;;;;;;;;;;16.90;99.90;;;;;;12364726;28;19972;-83
2023/08/13 03:19:10;;;;;;;;;;;16.90;99.90;;;;;;12352209;28;20279;-82
2023/08/13 03:25:12;;;;;;;;;;;17.00;99.90;;;;;;12352167;28;20406;-82
2023/08/13 03:31:14;;;;;;;;;;;16.90;99.90;;;;;;12335941;28;19965;-83
2023/08/13 03:37:16;;;;;;;;;;;16.90;99.90;;;;;;12337913;28;19942;-85
2023/08/13 03:43:20;;;;;;;;;;;16.90;99.90;;;;;;12362553;28;20362;-85
2023/08/13 03:49:25;;;;;;;;;;;17.00;99.90;;;;;;12361295;28;19985;-85
2023/08/13 03:55:30;;;;;;;;;;;17.00;99.90;;;;;;12382122;28;19930;-84
2023/08/13 04:01:36;;;;;;;;;;;16.80;99.90;;;;;;12358239;28;19937;-85
2023/08/13 04:07:38;;;;;;;;;;;16.70;99.90;;;;;;12371267;28;19937;-84
2023/08/13 04:13:41;;;;;;;;;;;16.70;99.90;;;;;;12370262;28;19995;-84
2023/08/13 04:19:43;;;;;;;;;;;16.60;99.90;;;;;;12363264;28;19930;-85
2023/08/13 04:25:45;;;;;;;;;;;16.70;99.90;;;;;;12369208;28;20080;-84
2023/08/13 04:31:47;;;;;;;;;;;16.70;99.90;;;;;;12345158;28;19933;-84
2023/08/13 04:37:49;;;;;;;;;;;16.50;99.90;;;;;;12361238;28;20374;-84
2023/08/13 04:43:51;;;;;;;;;;;16.50;99.90;;;;;;12351145;28;20069;-83
2023/08/13 04:49:53;;;;;;;;;;;16.50;99.90;;;;;;12359211;28;19992;-82
2023/08/13 04:55:55;;;;;;;;;;;16.60;99.90;;;;;;12350622;28;20013;-82
2023/08/13 05:01:58;;;;;;;;;;;16.80;99.90;;;;;;12376583;28;20680;-82
2023/08/13 05:08:02;;;;;;;;;;;17.30;99.90;;;;;;12350811;28;20401;-83
2023/08/13 05:14:04;;;;;;;;;;;18.60;99.90;;;;;;12355981;28;19934;-82
2023/08/13 05:20:06;;;;;;;;;;;18.80;99.90;;;;;;12354444;28;19926;-82
2023/08/13 05:26:13;;;;;;;;;;;18.70;99.90;;;;;;12353456;28;19965;-83
2023/08/13 05:32:16;;;;;;;;;;;18.30;99.90;;;;;;12345721;28;19926;-82
2023/08/13 05:38:18;;;;;;;;;;;17.80;99.90;;;;;;12366640;28;19937;-83
2023/08/13 05:44:20;;;;;;;;;;;17.70;99.90;;;;;;12356066;28;20404;-83
2023/08/13 05:50:24;;;;;;;;;;;17.40;99.90;;;;;;12343572;28;19964;-82
2023/08/13 05:56:26;;;;;;;;;;;17.20;99.90;;;;;;12374170;28;19930;-83
2023/08/13 06:02:28;;;;;;;;;;;17.30;99.90;;;;;;12361092;28;20289;-84
2023/08/13 06:08:30;;;;;;;;;;;17.30;99.90;;;;;;12366189;28;19927;-83
2023/08/13 06:14:31;;;;;;;;;;;17.40;99.90;;;;;;12354995;28;19930;-82
2023/08/13 06:20:33;;;;;;;;;;;17.30;99.90;;;;;;12355866;28;19929;-82
2023/08/13 06:26:36;;;;;;;;;;;17.50;99.90;;;;;;12333777;28;19972;-83
2023/08/13 06:32:38;;;;;;;;;;;17.50;99.90;;;;;;12338469;28;20000;-82
2023/08/13 06:38:43;;;;;;;;;;;17.70;99.90;;;;;;12349910;28;19926;-82
2023/08/13 06:44:45;;;;;;;;;;;18.00;99.90;;;;;;12370384;28;20271;-83
2023/08/13 06:50:52;;;;;;;;;;;18.20;99.90;;;;;;12354708;28;19965;-83
2023/08/13 06:56:54;;;;;;;;;;;18.30;99.90;;;;;;12342964;28;19987;-83
2023/08/13 07:02:56;;;;;;;;;;;18.40;99.90;;;;;;12336103;28;19926;-83
2023/08/13 07:09:01;;;;;;;;;;;18.30;99.90;;;;;;12366992;28;19937;-82
2023/08/13 07:15:03;;;;;;;;;;;18.30;99.90;;;;;;12347415;28;19927;-84
2023/08/13 07:21:06;;;;;;;;;;;18.30;99.90;;;;;;12377316;28;19926;-85
2023/08/13 07:27:10;;;;;;;;;;;18.50;99.90;;;;;;12353924;28;19926;-84
2023/08/13 07:33:11;;;;;;;;;;;18.50;99.90;;;;;;12362863;28;19930;-82
2023/08/13 07:39:15;;;;;;;;;;;18.60;99.90;;;;;;12352688;28;19926;-85
2023/08/13 07:45:18;;;;;;;;;;;18.60;99.90;;;;;;12336177;28;20374;-83
2023/08/13 07:51:20;;;;;;;;;;;18.70;99.90;;;;;;12344890;28;20367;-83
2023/08/13 07:57:23;;;;;;;;;;;18.90;99.90;;;;;;12359158;28;19933;-84
2023/08/13 08:03:25;;;;;;;;;;;19.00;99.90;;;;;;12335575;28;19930;-85
2023/08/13 08:09:27;;;;;;;;;;;19.40;99.90;;;;;;12373343;28;19953;-84
2023/08/13 08:15:29;;;;;;;;;;;19.50;99.90;;;;;;12359904;28;19934;-82
2023/08/13 08:21:31;;;;;;;;;;;19.50;99.90;;;;;;12369563;28;19940;-83
2023/08/13 08:27:33;;;;;;;;;;;19.60;99.90;;;;;;12345291;28;20289;-84
2023/08/13 08:33:37;;;;;;;;;;;19.50;99.90;;;;;;12347197;28;19927;-83
2023/08/13 08:39:38;;;;;;;;;;;19.60;99.90;;;;;;12341570;28;19930;-83
2023/08/13 08:45:47;;;;;;;;;;;19.80;99.90;;;;;;12346808;28;19985;-83
2023/08/13 08:51:49;;;;;;;;;;;20.00;99.90;;;;;;12375103;28;19938;-83
2023/08/13 08:57:53;;;;;;;;;;;19.90;99.90;;;;;;12362120;28;19926;-84
2023/08/13 09:03:57;;;;;;;;;;;20.20;99.90;;;;;;12362942;28;20061;-83
2023/08/13 09:10:02;;;;;;;;;;;20.40;99.90;;;;;;12369280;28;20484;-84
2023/08/13 09:16:08;;;;;;;;;;;20.60;99.90;;;;;;12348514;28;20402;-82
2023/08/13 09:22:10;;;;;;;;;;;20.60;99.90;;;;;;12362300;28;19961;-84
2023/08/13 09:28:13;;;;;;;;;;;21.00;99.90;;;;;;12347022;28;19926;-84
2023/08/13 09:34:15;;;;;;;;;;;21.50;99.90;;;;;;12384443;28;19930;-86
2023/08/13 09:40:16;;;;;;;;;;;21.60;99.90;;;;;;12374311;28;19930;-86
2023/08/13 09:46:24;;;;;;;;;;;21.50;99.90;;;;;;12356155;28;19926;-82
2023/08/13 09:52:29;;;;;;;;;;;21.60;99.90;;;;;;12360832;28;19938;-83
2023/08/13 09:58:31;;;;;;;;;;;21.50;99.90;;;;;;12361726;28;20424;-86
2023/08/13 10:04:36;;;;;;;;;;;21.40;99.90;;;;;;12378002;28;19934;-87
2023/08/13 10:10:40;;;;;;;;;;;22.00;99.90;;;;;;12380688;28;19984;-86
2023/08/13 10:16:42;;;;;;;;;;;22.30;99.90;;;;;;12370067;28;20316;-86
2023/08/13 10:22:48;;;;;;;;;;;22.90;99.90;;;;;;12364968;28;19988;-86
2023/08/13 10:28:52;;;;;;;;;;;23.00;99.90;;;;;;12346283;28;19927;-86
2023/08/13 10:34:54;;;;;;;;;;;23.10;99.90;;;;;;12363179;28;19930;-86
2023/08/13 10:40:58;;;;;;;;;;;23.50;99.90;;;;;;12342755;28;19933;-84
2023/08/13 10:47:01;;;;;;;;;;;23.60;99.90;;;;;;12361635;28;19965;-84
2023/08/13 10:53:07;;;;;;;;;;;23.60;99.90;;;;;;12356079;28;19949;-84
2023/08/13 10:59:10;;;;;;;;;;;23.40;99.90;;;;;;12352598;28;19930;-84
2023/08/13 11:05:12;;;;;;;;;;;23.10;99.90;;;;;;12365274;28;19926;-86
2023/08/13 11:11:18;;;;;;;;;;;23.10;99.90;;;;;;12345745;28;19976;-86
2023/08/13 11:17:20;;;;;;;;;;;22.60;99.90;;;;;;12361701;28;19929;-86
2023/08/13 11:23:22;;;;;;;;;;;22.70;99.90;;;;;;12411908;28;19930;-86
2023/08/13 11:29:24;;;;;;;;;;;23.00;99.90;;;;;;12413882;28;19930;-84
2023/08/13 11:35:26;;;;;;;;;;;23.00;99.90;;;;;;12400538;28;19933;-85
2023/08/13 11:41:28;;;;;;;;;;;23.00;99.90;;;;;;12374165;28;19977;-84
2023/08/13 11:47:30;;;;;;;;;;;23.20;99.90;;;;;;12375506;28;19937;-86
2023/08/13 11:53:39;;;;;;;;;;;23.70;99.90;;;;;;12349199;28;19934;-82
2023/08/13 11:59:44;;;;;;;;;;;23.80;99.90;;;;;;12360426;28;20398;-84
2023/08/13 12:05:46;;;;;;;;;;;24.20;99.90;;;;;;12345179;28;19938;-82
2023/08/13 12:11:48;;;;;;;;;;;24.30;99.90;;;;;;12358071;28;19934;-82
2023/08/13 12:17:52;;;;;;;;;;;24.30;99.90;;;;;;12384370;28;19926;-84
2023/08/13 12:23:54;;;;;;;;;;;23.60;99.90;;;;;;12363461;28;19926;-84
2023/08/13 12:29:56;;;;;;;;;;;23.90;99.90;;;;;;12384924;28;19926;-84
2023/08/13 12:35:58;;;;;;;;;;;23.80;99.90;;;;;;12343083;28;19937;-83
2023/08/13 12:42:00;;;;;;;;;;;23.60;99.90;;;;;;12365028;28;20341;-83
2023/08/13 12:48:02;;;;;;;;;;;23.30;99.90;;;;;;12364508;28;19937;-83
2023/08/13 12:54:04;;;;;;;;;;;22.90;99.90;;;;;;12361274;28;19930;-84
2023/08/13 13:00:07;;;;;;;;;;;22.60;99.90;;;;;;12366407;28;19941;-83
2023/08/13 13:06:09;;;;;;;;;;;22.70;99.90;;;;;;12364292;28;20016;-83
2023/08/13 13:12:11;;;;;;;;;;;22.70;99.90;;;;;;12362910;28;20309;-83
2023/08/13 13:18:14;;;;;;;;;;;22.80;99.90;;;;;;12364431;28;20401;-82
2023/08/13 13:24:17;;;;;;;;;;;22.80;99.90;;;;;;12371089;28;20421;-83
2023/08/13 13:30:19;;;;;;;;;;;22.90;99.90;;;;;;12345732;28;19926;-82
2023/08/13 13:36:22;;;;;;;;;;;23.00;99.90;;;;;;12353513;28;20347;-82
2023/08/13 13:42:23;;;;;;;;;;;23.10;99.90;;;;;;12349096;28;19933;-83
2023/08/13 13:48:25;;;;;;;;;;;23.10;99.90;;;;;;12355141;28;20290;-82
2023/08/13 13:54:29;;;;;;;;;;;23.10;99.90;;;;;;12350281;28;19926;-85
2023/08/13 14:00:30;;;;;;;;;;;23.40;99.90;;;;;;12345128;28;19926;-83
2023/08/13 14:06:33;;;;;;;;;;;23.30;99.90;;;;;;12347999;28;19969;-85
2023/08/13 14:12:35;;;;;;;;;;;23.50;99.90;;;;;;12346324;28;20379;-84
2023/08/13 14:18:38;;;;;;;;;;;23.30;99.90;;;;;;12351750;28;19926;-85
2023/08/13 14:24:40;;;;;;;;;;;23.50;99.90;;;;;;12354154;28;19926;-84
2023/08/13 14:30:43;;;;;;;;;;;23.40;99.90;;;;;;12350047;28;19926;-85
2023/08/13 14:36:45;;;;;;;;;;;23.40;99.90;;;;;;12355582;28;19971;-85
2023/08/13 14:42:48;;;;;;;;;;;23.40;99.90;;;;;;12347372;28;20024;-85
2023/08/13 14:48:50;;;;;;;;;;;23.20;99.90;;;;;;12370674;28;19926;-85
2023/08/13 14:54:52;;;;;;;;;;;23.10;99.90;;;;;;12354043;28;19932;-84
2023/08/13 15:00:54;;;;;;;;;;;23.30;99.90;;;;;;12346483;28;20041;-84
2023/08/13 15:06:56;;;;;;;;;;;23.10;99.90;;;;;;12349142;28;20116;-85
2023/08/13 15:12:58;;;;;;;;;;;23.00;99.90;;;;;;12349824;28;19961;-84
2023/08/13 15:19:00;;;;;;;;;;;23.20;99.90;;;;;;12394321;28;20366;-84
2023/08/13 15:25:03;;;;;;;;;;;23.30;99.90;;;;;;12352990;28;19926;-84
2023/08/13 15:31:09;;;;;;;;;;;23.00;99.90;;;;;;12349326;28;20020;-85
2023/08/13 15:37:11;;;;;;;;;;;22.90;99.90;;;;;;12375049;28;19930;-85
2023/08/13 15:43:16;;;;;;;;;;;23.20;99.90;;;;;;12350883;28;19936;-85
2023/08/13 15:49:21;;;;;;;;;;;23.60;99.90;;;;;;12373825;28;19926;-84
2023/08/13 15:55:24;;;;;;;;;;;24.10;99.90;;;;;;12362453;28;19933;-84
2023/08/13 16:01:26;;;;;;;;;;;24.30;99.90;;;;;;12365519;28;19926;-84
2023/08/13 16:07:28;;;;;;;;;;;23.80;99.90;;;;;;12362191;28;19926;-84
2023/08/13 16:13:35;;;;;;;;;;;23.40;99.90;;;;;;12362126;28;19926;-84
2023/08/13 16:19:38;;;;;;;;;;;23.20;99.90;;;;;;12361216;28;19926;-84
2023/08/13 16:25:41;;;;;;;;;;;23.10;99.90;;;;;;12354505;28;19984;-84
2023/08/13 16:31:43;;;;;;;;;;;22.90;99.90;;;;;;12353082;28;19942;-84
2023/08/13 16:37:45;;;;;;;;;;;22.70;99.90;;;;;;12360139;28;19976;-84
2023/08/13 16:43:47;;;;;;;;;;;22.60;99.90;;;;;;12364364;28;20278;-84
2023/08/13 16:49:49;;;;;;;;;;;22.40;99.90;;;;;;12378332;28;19930;-84
2023/08/13 16:56:05;;;;;;;;;;;22.40;99.90;;;;;;12355482;28;19930;-84
2023/08/13 17:02:08;;;;;;;;;;;22.30;99.90;;;;;;12365917;28;19936;-84
2023/08/13 17:08:10;;;;;;;;;;;22.20;99.90;;;;;;12372405;28;19930;-84
2023/08/13 17:14:12;;;;;;;;;;;22.00;99.90;;;;;;12350033;28;19926;-84
2023/08/13 17:20:14;;;;;;;;;;;22.00;99.90;;;;;;12382959;28;19937;-84
2023/08/13 17:26:18;;;;;;;;;;;21.90;99.90;;;;;;12355376;28;19965;-85
2023/08/13 17:32:20;;;;;;;;;;;21.80;99.90;;;;;;12368658;28;19980;-85
2023/08/13 17:38:22;;;;;;;;;;;21.80;99.90;;;;;;12369609;28;19933;-84
2023/08/13 17:44:27;;;;;;;;;;;21.70;99.90;;;;;;12356670;28;19957;-85
2023/08/13 17:50:29;;;;;;;;;;;21.70;99.90;;;;;;12356355;28;19978;-84
2023/08/13 17:56:31;;;;;;;;;;;21.50;99.90;;;;;;12362300;28;19933;-84
2023/08/13 18:02:33;;;;;;;;;;;21.40;99.90;;;;;;12375080;28;19927;-84
2023/08/13 18:08:35;;;;;;;;;;;21.20;99.90;;;;;;12374216;28;19933;-84
2023/08/13 18:14:37;;;;;;;;;;;21.10;99.90;;;;;;12383127;28;20024;-85
2023/08/13 18:20:39;;;;;;;;;;;21.10;99.90;;;;;;12414003;28;19929;-84
2023/08/13 18:26:42;;;;;;;;;;;20.90;99.90;;;;;;12416720;28;19930;-85
2023/08/13 18:32:46;;;;;;;;;;;20.80;99.90;;;;;;12427905;28;19929;-85
2023/08/13 18:38:48;;;;;;;;;;;20.60;99.90;;;;;;12404584;28;19934;-84
2023/08/13 18:44:50;;;;;;;;;;;20.60;99.90;;;;;;12385653;28;20504;-85
2023/08/13 18:50:53;;;;;;;;;;;20.50;99.90;;;;;;12346086;28;19930;-82
2023/08/13 18:56:55;;;;;;;;;;;20.40;99.90;;;;;;12347993;28;19933;-82
2023/08/13 19:02:57;;;;;;;;;;;20.40;99.90;;;;;;12361083;28;20061;-82
2023/08/13 19:08:59;;;;;;;;;;;20.30;99.90;;;;;;12365082;28;19930;-82
2023/08/13 19:15:01;;;;;;;;;;;20.10;99.90;;;;;;12358663;28;19925;-83
2023/08/13 19:21:03;;;;;;;;;;;20.00;99.90;;;;;;12334345;28;20092;-82
2023/08/13 19:27:05;;;;;;;;;;;19.80;99.90;;;;;;12341227;28;19925;-82
2023/08/13 19:33:09;;;;;;;;;;;19.70;99.90;;;;;;12356286;28;22481;-82
2023/08/13 19:39:10;;;;;;;;;;;19.70;99.90;;;;;;12351622;28;19965;-82
2023/08/13 19:45:12;;;;;;;;;;;19.50;99.90;;;;;;12356486;28;19967;-82
2023/08/13 19:51:14;;;;;;;;;;;19.50;99.90;;;;;;12374949;28;19930;-82
2023/08/13 19:57:16;;;;;;;;;;;19.60;99.90;;;;;;12384072;28;19924;-83
2023/08/13 20:03:18;;;;;;;;;;;19.60;99.90;;;;;;12363308;28;20087;-83
2023/08/13 20:09:20;;;;;;;;;;;19.60;99.90;;;;;;12374779;28;19977;-84
2023/08/13 20:15:22;;;;;;;;;;;19.60;99.90;;;;;;12355061;28;19933;-83
2023/08/13 20:21:24;;;;;;;;;;;19.50;99.90;;;;;;12359519;28;20293;-83
2023/08/13 20:27:26;;;;;;;;;;;19.40;99.90;;;;;;12333794;28;19930;-84
2023/08/13 20:33:28;;;;;;;;;;;19.50;99.90;;;;;;12364965;28;19933;-83
2023/08/13 20:39:30;;;;;;;;;;;19.40;99.90;;;;;;12362405;28;19930;-83
2023/08/13 20:45:34;;;;;;;;;;;19.40;99.90;;;;;;12354762;28;19933;-83
2023/08/13 20:51:36;;;;;;;;;;;19.40;99.90;;;;;;12369875;28;19926;-83
2023/08/13 20:57:37;;;;;;;;;;;19.40;99.90;;;;;;12377552;28;19936;-83
2023/08/13 21:03:40;;;;;;;;;;;19.30;99.90;;;;;;12376415;28;19949;-84
2023/08/13 21:09:41;;;;;;;;;;;19.40;99.90;;;;;;12360804;28;19942;-81
2023/08/13 21:15:43;;;;;;;;;;;19.30;99.90;;;;;;12341895;28;20369;-82
2023/08/13 21:21:45;;;;;;;;;;;19.30;99.90;;;;;;12353517;28;19996;-82
2023/08/13 21:27:47;;;;;;;;;;;19.20;99.90;;;;;;12337570;28;19969;-82
2023/08/13 21:33:49;;;;;;;;;;;19.10;99.90;;;;;;12359684;28;20384;-82
2023/08/13 21:39:51;;;;;;;;;;;19.10;99.90;;;;;;12356459;28;20021;-82
2023/08/13 21:45:53;;;;;;;;;;;19.10;99.90;;;;;;12348669;28;19930;-81
2023/08/13 21:51:55;;;;;;;;;;;19.10;99.90;;;;;;12362993;28;19926;-82
2023/08/13 21:57:57;;;;;;;;;;;19.10;99.90;;;;;;12363939;28;20056;-82
2023/08/13 22:03:58;;;;;;;;;;;19.00;99.90;;;;;;12365385;28;19940;-81
2023/08/13 22:10:01;;;;;;;;;;;19.00;99.90;;;;;;12363080;28;19926;-82
2023/08/13 22:16:03;;;;;;;;;;;19.00;99.90;;;;;;12358116;28;19926;-83
2023/08/13 22:22:05;;;;;;;;;;;19.00;99.90;;;;;;12372835;28;19926;-82
2023/08/13 22:28:07;;;;;;;;;;;19.00;99.90;;;;;;12347094;28;19926;-83
2023/08/13 22:34:08;;;;;;;;;;;18.90;99.90;;;;;;12348987;28;19937;-82
2023/08/13 22:40:10;;;;;;;;;;;18.90;99.90;;;;;;12358466;28;19952;-81
2023/08/13 22:46:13;;;;;;;;;;;18.90;99.90;;;;;;12364673;28;19926;-82
2023/08/13 22:52:14;;;;;;;;;;;18.90;99.90;;;;;;12365460;28;19933;-82
2023/08/13 22:58:17;;;;;;;;;;;18.90;99.90;;;;;;12367073;28;19976;-83
2023/08/13 23:04:18;;;;;;;;;;;18.80;99.90;;;;;;12378488;28;19965;-83
2023/08/13 23:10:20;;;;;;;;;;;18.80;99.90;;;;;;12357162;28;19984;-83
2023/08/13 23:16:22;;;;;;;;;;;18.80;99.90;;;;;;12360723;28;19933;-83
2023/08/13 23:22:24;;;;;;;;;;;18.90;99.90;;;;;;12343793;28;19981;-83
2023/08/13 23:28:26;;;;;;;;;;;18.80;99.90;;;;;;12328309;28;19965;-83
2023/08/13 23:34:28;;;;;;;;;;;18.60;99.90;;;;;;12362387;28;19941;-85
2023/08/13 23:40:30;;;;;;;;;;;18.40;99.90;;;;;;12346637;28;19926;-85
2023/08/13 23:46:32;;;;;;;;;;;18.30;99.90;;;;;;12352397;28;20007;-85
2023/08/13 23:52:34;;;;;;;;;;;18.30;99.90;;;;;;12372304;28;19961;-85
2023/08/13 23:58:35;;;;;;;;;;;18.20;99.90;;;;;;12339406;28;19996;-85
